createdAt,value
2018-10-19T00:00:54.797Z,69.97
2018-10-19T00:03:22.931Z,70.72
2018-10-19T00:05:51.077Z,70.42
2018-10-19T00:08:19.447Z,70.33
2018-10-19T00:10:47.580Z,70.83
2018-10-19T00:13:15.720Z,69.91
2018-10-19T00:15:43.864Z,70.12
2018-10-19T00:18:12.045Z,70.43
2018-10-19T00:20:40.192Z,70.27
2018-10-19T00:23:08.456Z,70.44
2018-10-19T00:25:37.140Z,70.05
2018-10-19T00:28:05.505Z,70.43
2018-10-19T00:30:34.533Z,70.40
2018-10-19T00:33:02.699Z,70.62
2018-10-19T00:35:30.796Z,69.40
2018-10-19T00:37:58.927Z,69.74
2018-10-19T00:40:27.063Z,69.85
2018-10-19T00:42:55.495Z,69.74
2018-10-19T00:45:27.994Z,69.75
2018-10-19T00:47:56.076Z,69.86
2018-10-19T00:50:24.242Z,70.18
2018-10-19T00:52:52.394Z,69.51
2018-10-19T00:55:20.532Z,69.85
2018-10-19T00:57:49.171Z,69.38
2018-10-19T01:00:17.556Z,69.62
2018-10-19T01:02:45.686Z,69.60
2018-10-19T01:05:13.910Z,69.19
2018-10-19T01:07:41.980Z,70.27
2018-10-19T01:10:10.112Z,70.17
2018-10-19T01:12:38.260Z,69.94
2018-10-19T01:15:06.443Z,70.16
2018-10-19T01:17:34.517Z,69.66
2018-10-19T01:20:02.657Z,70.12
2018-10-19T01:22:31.098Z,70.18
2018-10-19T01:24:59.460Z,70.28
2018-10-19T01:27:27.604Z,70.50
2018-10-19T01:29:55.929Z,69.98
2018-10-19T01:32:24.302Z,69.93
2018-10-19T01:34:52.507Z,69.87
2018-10-19T01:37:20.599Z,69.69
2018-10-19T01:39:48.707Z,70.53
2018-10-19T01:42:16.837Z,70.26
2018-10-19T01:44:44.957Z,69.61
2018-10-19T01:47:13.169Z,69.60
2018-10-19T01:49:41.413Z,70.11
2018-10-19T01:52:09.555Z,70.15
2018-10-19T01:54:37.668Z,69.97
2018-10-19T01:57:05.892Z,69.94
2018-10-19T01:59:33.958Z,69.73
2018-10-19T02:02:02.384Z,70.25
2018-10-19T02:04:30.555Z,69.90
2018-10-19T02:06:58.640Z,69.80
2018-10-19T02:09:27.188Z,70.09
2018-10-19T02:11:55.315Z,70.00
2018-10-19T02:14:23.521Z,70.23
2018-10-19T02:16:51.683Z,70.04
2018-10-19T02:19:19.807Z,70.39
2018-10-19T02:21:47.940Z,70.07
2018-10-19T02:24:16.074Z,70.97
2018-10-19T02:26:44.203Z,71.05
2018-10-19T02:29:12.837Z,70.82
2018-10-19T02:31:40.900Z,71.49
2018-10-19T02:34:09.145Z,71.80
2018-10-19T02:36:37.288Z,72.19
2018-10-19T02:39:06.887Z,72.34
2018-10-19T02:41:34.956Z,72.21
2018-10-19T02:44:03.072Z,72.75
2018-10-19T02:46:31.196Z,72.96
2018-10-19T02:48:59.324Z,72.85
2018-10-19T02:51:27.490Z,73.37
2018-10-19T02:53:55.636Z,73.47
2018-10-19T02:56:24.324Z,73.32
2018-10-19T02:58:52.457Z,73.68
2018-10-19T03:01:20.571Z,74.00
2018-10-19T03:03:48.757Z,74.00
2018-10-19T03:06:16.895Z,73.80
2018-10-19T03:08:45.047Z,74.11
2018-10-19T03:11:13.870Z,73.65
2018-10-19T03:13:41.964Z,73.93
2018-10-19T03:16:10.305Z,73.93
2018-10-19T03:18:39.009Z,74.10
2018-10-19T03:21:07.193Z,74.33
2018-10-19T03:23:35.512Z,73.47
2018-10-19T03:26:03.646Z,73.45
2018-10-19T03:28:31.771Z,73.87
2018-10-19T03:31:00.041Z,73.76
2018-10-19T03:33:38.517Z,73.86
2018-10-19T03:36:06.651Z,73.92
2018-10-19T03:38:34.764Z,74.02
2018-10-19T03:41:02.950Z,73.79
2018-10-19T03:43:31.036Z,73.62
2018-10-19T03:45:59.180Z,73.75
2018-10-19T03:48:27.380Z,73.27
2018-10-19T03:50:55.683Z,73.12
2018-10-19T03:53:23.772Z,73.50
2018-10-19T03:55:51.900Z,73.59
2018-10-19T03:58:20.040Z,73.55
2018-10-19T04:00:48.176Z,73.72
2018-10-19T04:03:16.688Z,73.96
2018-10-19T04:05:44.750Z,74.14
2018-10-19T04:08:12.873Z,73.94
2018-10-19T04:10:41.543Z,73.50
2018-10-19T04:13:09.723Z,73.94
2018-10-19T04:15:37.864Z,73.81
2018-10-19T04:18:06.751Z,73.50
2018-10-19T04:20:34.840Z,73.64
2018-10-19T04:23:07.389Z,73.77
2018-10-19T04:25:36.378Z,73.18
2018-10-19T04:28:05.265Z,73.86
2018-10-19T04:30:33.933Z,74.41
2018-10-19T04:33:02.570Z,73.69
2018-10-19T04:35:30.796Z,74.02
2018-10-19T04:37:58.921Z,73.67
2018-10-19T04:40:27.168Z,74.06
2018-10-19T04:42:55.556Z,74.81
2018-10-19T04:45:23.740Z,74.04
2018-10-19T04:47:52.016Z,73.75
2018-10-19T04:50:20.038Z,74.53
2018-10-19T04:52:48.194Z,73.74
2018-10-19T04:55:19.591Z,74.45
2018-10-19T04:57:47.762Z,73.78
2018-10-19T05:00:17.548Z,74.28
2018-10-19T05:02:45.753Z,73.96
2018-10-19T05:05:13.850Z,74.00
2018-10-19T05:07:42.108Z,74.01
2018-10-19T05:10:10.525Z,73.92
2018-10-19T05:12:38.761Z,74.13
2018-10-19T05:15:08.222Z,73.84
2018-10-19T05:17:36.372Z,74.53
2018-10-19T05:20:07.063Z,74.12
2018-10-19T05:22:35.315Z,73.72
2018-10-19T05:25:03.684Z,74.32
2018-10-19T05:27:31.889Z,74.17
2018-10-19T05:30:00.036Z,74.08
2018-10-19T05:32:28.168Z,74.25
2018-10-19T05:34:56.392Z,73.83
2018-10-19T05:37:24.783Z,73.81
2018-10-19T05:39:52.935Z,73.70
2018-10-19T05:42:21.085Z,74.11
2018-10-19T05:44:49.223Z,73.53
2018-10-19T05:47:17.377Z,73.49
2018-10-19T05:49:46.344Z,73.60
2018-10-19T05:52:14.527Z,73.52
2018-10-19T05:54:42.600Z,73.52
2018-10-19T05:57:10.856Z,73.04
2018-10-19T05:59:39.269Z,72.92
2018-10-19T06:02:07.537Z,72.48
2018-10-19T06:04:46.279Z,70.99
2018-10-19T06:07:14.521Z,70.04
2018-10-19T06:09:43.190Z,68.68
2018-10-19T06:12:11.320Z,68.10
2018-10-19T06:14:39.647Z,67.25
2018-10-19T06:17:07.876Z,66.34
2018-10-19T06:19:35.925Z,65.91
2018-10-19T06:22:04.068Z,66.12
2018-10-19T06:24:48.484Z,66.25
2018-10-19T06:27:16.624Z,66.09
2018-10-19T06:29:44.745Z,66.02
2018-10-19T06:32:13.104Z,66.65
2018-10-19T06:34:41.420Z,67.76
2018-10-19T06:37:09.668Z,68.12
2018-10-19T06:39:37.824Z,69.28
2018-10-19T06:42:05.974Z,69.99
2018-10-19T06:44:34.111Z,70.52
2018-10-19T06:47:02.362Z,70.67
2018-10-19T06:49:30.415Z,71.38
2018-10-19T06:51:58.857Z,71.44
2018-10-19T06:54:27.217Z,71.54
2018-10-19T06:56:55.344Z,71.94
2018-10-19T06:59:23.727Z,72.28
2018-10-19T07:01:51.799Z,71.93
2018-10-19T07:04:19.939Z,72.07
2018-10-19T07:06:48.122Z,71.75
2018-10-19T07:09:29.116Z,72.52
2018-10-19T07:11:57.284Z,72.17
2018-10-19T07:14:35.732Z,71.81
2018-10-19T07:17:04.851Z,72.75
2018-10-19T07:19:33.014Z,73.57
2018-10-19T07:22:01.184Z,72.35
2018-10-19T07:24:29.307Z,72.82
2018-10-19T07:26:57.434Z,72.30
2018-10-19T07:29:25.599Z,72.73
2018-10-19T07:31:53.742Z,73.40
2018-10-19T07:34:21.892Z,73.18
2018-10-19T07:36:50.234Z,73.97
2018-10-19T07:39:18.402Z,73.89
2018-10-19T07:41:46.882Z,73.36
2018-10-19T07:44:15.128Z,73.53
2018-10-19T07:46:43.173Z,73.92
2018-10-19T07:49:11.324Z,73.59
2018-10-19T07:51:39.487Z,73.18
2018-10-19T07:54:07.899Z,73.36
2018-10-19T07:56:36.014Z,73.25
2018-10-19T07:59:06.169Z,73.02
2018-10-19T08:01:34.289Z,73.31
2018-10-19T08:04:02.437Z,73.36
2018-10-19T08:06:30.971Z,73.07
2018-10-19T08:08:59.100Z,73.23
2018-10-19T08:11:27.458Z,72.41
2018-10-19T08:13:55.631Z,72.68
2018-10-19T08:16:23.715Z,71.73
2018-10-19T08:18:52.065Z,72.11
2018-10-19T08:21:20.217Z,72.48
2018-10-19T08:23:48.360Z,72.26
2018-10-19T08:26:16.514Z,72.11
2018-10-19T08:28:44.811Z,72.25
2018-10-19T08:31:12.961Z,71.67
2018-10-19T08:33:41.099Z,71.94
2018-10-19T08:36:09.451Z,72.30
2018-10-19T08:38:37.593Z,71.16
2018-10-19T08:41:05.926Z,70.62
2018-10-19T08:43:34.071Z,70.81
2018-10-19T08:46:07.436Z,70.39
2018-10-19T08:48:35.587Z,70.54
2018-10-19T08:51:03.784Z,70.31
2018-10-19T08:53:31.920Z,69.70
2018-10-19T08:56:00.045Z,69.58
2018-10-19T08:58:28.255Z,69.03
2018-10-19T09:00:56.392Z,69.01
2018-10-19T09:03:24.564Z,68.88
2018-10-19T09:05:52.680Z,68.70
2018-10-19T09:08:20.827Z,68.33
2018-10-19T09:10:49.094Z,67.97
2018-10-19T09:13:17.216Z,68.03
2018-10-19T09:15:45.528Z,68.06
2018-10-19T09:18:13.681Z,68.17
2018-10-19T09:20:41.964Z,67.75
2018-10-19T09:23:10.204Z,67.13
2018-10-19T09:25:38.227Z,66.76
2018-10-19T09:28:06.642Z,66.44
2018-10-19T09:30:35.021Z,65.29
2018-10-19T09:33:03.244Z,65.37
2018-10-19T09:35:31.525Z,65.48
2018-10-19T09:37:59.591Z,63.98
2018-10-19T09:40:27.769Z,64.83
2018-10-19T09:42:56.279Z,64.23
2018-10-19T09:45:24.421Z,63.76
2018-10-19T09:47:52.547Z,64.12
2018-10-19T09:50:20.668Z,64.01
2018-10-19T09:52:48.810Z,63.15
2018-10-19T09:55:16.991Z,63.22
2018-10-19T09:57:45.109Z,63.12
2018-10-19T10:00:18.641Z,62.53
2018-10-19T10:02:47.476Z,61.69
2018-10-19T10:05:15.733Z,62.42
2018-10-19T10:07:59.874Z,62.71
2018-10-19T10:10:47.376Z,62.04
2018-10-19T10:13:15.508Z,61.37
2018-10-19T10:15:43.644Z,59.85
2018-10-19T10:18:12.009Z,60.53
2018-10-19T10:20:40.147Z,59.60
2018-10-19T10:23:08.271Z,60.37
2018-10-19T10:25:36.659Z,59.42
2018-10-19T10:28:04.902Z,59.42
2018-10-19T10:30:32.969Z,58.92
2018-10-19T10:33:01.109Z,57.18
2018-10-19T10:35:29.231Z,56.47
2018-10-19T10:37:57.359Z,57.33
2018-10-19T10:40:25.524Z,57.11
2018-10-19T10:42:53.708Z,56.94
2018-10-19T10:45:21.858Z,55.85
2018-10-19T10:47:49.917Z,56.78
2018-10-19T10:50:18.056Z,55.56
2018-10-19T10:52:46.181Z,55.36
2018-10-19T10:55:14.368Z,55.33
2018-10-19T10:57:42.748Z,55.03
2018-10-19T11:00:10.892Z,54.61
2018-10-19T11:02:39.025Z,54.88
2018-10-19T11:05:07.358Z,54.62
2018-10-19T11:07:35.635Z,53.97
2018-10-19T11:10:03.756Z,54.50
2018-10-19T11:12:31.854Z,53.53
2018-10-19T11:14:59.978Z,53.87
2018-10-19T11:17:28.120Z,54.11
2018-10-19T11:19:56.261Z,52.41
2018-10-19T11:22:24.392Z,52.17
2018-10-19T11:24:53.063Z,51.99
2018-10-19T11:27:21.180Z,51.89
2018-10-19T11:29:49.572Z,52.31
2018-10-19T11:32:17.712Z,52.48
2018-10-19T11:34:45.868Z,51.59
2018-10-19T11:37:14.069Z,51.31
2018-10-19T11:39:53.547Z,51.48
2018-10-19T11:42:21.640Z,50.44
2018-10-19T11:44:49.767Z,50.53
2018-10-19T11:47:17.919Z,50.61
2018-10-19T11:49:46.072Z,48.97
2018-10-19T11:52:14.258Z,50.03
2018-10-19T11:54:42.589Z,49.51
2018-10-19T11:57:10.770Z,50.01
2018-10-19T11:59:39.008Z,50.31
2018-10-19T12:02:07.771Z,48.98
2018-10-19T12:04:35.904Z,48.55
2018-10-19T12:07:04.808Z,48.50
2018-10-19T12:09:32.895Z,48.21
2018-10-19T12:12:01.042Z,48.80
2018-10-19T12:14:29.440Z,48.12
2018-10-19T12:16:57.905Z,47.51
2018-10-19T12:19:25.944Z,47.86
2018-10-19T12:21:54.085Z,48.41
2018-10-19T12:24:22.233Z,47.06
2018-10-19T12:26:50.346Z,47.19
2018-10-19T12:29:18.767Z,47.97
2018-10-19T12:31:47.288Z,47.62
2018-10-19T12:34:15.419Z,47.52
2018-10-19T12:36:43.571Z,47.35
2018-10-19T12:39:11.772Z,47.58
2018-10-19T12:41:40.332Z,48.00
2018-10-19T12:44:08.457Z,47.07
2018-10-19T12:46:51.879Z,47.40
2018-10-19T12:49:21.356Z,47.69
2018-10-19T12:51:49.504Z,48.14
2018-10-19T12:54:18.029Z,48.63
2018-10-19T12:56:46.101Z,48.13
2018-10-19T12:59:14.270Z,49.17
2018-10-19T13:01:42.402Z,48.55
2018-10-19T13:04:10.523Z,49.29
2018-10-19T13:06:38.677Z,49.12
2018-10-19T13:09:09.135Z,50.36
2018-10-19T13:11:37.260Z,49.24
2018-10-19T13:14:05.483Z,48.29
2018-10-19T13:16:33.616Z,48.63
2018-10-19T13:19:01.822Z,48.53
2018-10-19T13:21:29.887Z,48.81
2018-10-19T13:23:58.069Z,48.42
2018-10-19T13:26:26.200Z,48.73
2018-10-19T13:28:54.584Z,48.57
2018-10-19T13:31:22.716Z,48.38
2018-10-19T13:33:51.064Z,47.80
2018-10-19T13:36:19.212Z,47.22
2018-10-19T13:38:47.324Z,47.52
2018-10-19T13:41:15.439Z,48.33
2018-10-19T13:43:44.099Z,48.10
2018-10-19T13:46:12.244Z,48.34
2018-10-19T13:48:40.351Z,47.44
2018-10-19T13:51:08.533Z,47.76
2018-10-19T13:53:36.685Z,47.93
2018-10-19T13:56:04.936Z,47.42
2018-10-19T13:58:33.085Z,47.29
2018-10-19T14:01:01.167Z,46.98
2018-10-19T14:03:29.301Z,46.95
2018-10-19T14:05:57.437Z,47.53
2018-10-19T14:08:25.732Z,47.89
2018-10-19T14:10:53.879Z,47.84
2018-10-19T14:13:21.996Z,48.13
2018-10-19T14:15:50.121Z,48.53
2018-10-19T14:18:18.252Z,48.42
2018-10-19T14:20:46.426Z,48.16
2018-10-19T14:23:14.590Z,48.08
2018-10-19T14:25:42.833Z,48.29
2018-10-19T14:31:10.834Z,48.40
2018-10-19T14:33:39.030Z,49.04
2018-10-19T14:36:07.065Z,49.03
2018-10-19T14:38:35.457Z,48.68
2018-10-19T14:41:03.690Z,49.66
2018-10-19T14:43:31.761Z,49.04
2018-10-19T14:46:00.622Z,48.96
2018-10-19T14:48:28.980Z,50.43
2018-10-19T14:50:57.364Z,49.98
2018-10-19T14:53:25.467Z,49.79
2018-10-19T14:55:53.625Z,49.27
2018-10-19T14:58:22.103Z,50.65
2018-10-19T15:03:46.641Z,50.61
2018-10-19T15:06:18.520Z,50.42
2018-10-19T15:08:47.314Z,51.12
2018-10-19T15:11:15.675Z,50.85
2018-10-19T15:13:43.588Z,50.77
2018-10-19T15:16:11.725Z,50.66
2018-10-19T15:21:30.110Z,50.85
2018-10-19T15:23:58.305Z,50.81
2018-10-19T15:26:26.420Z,50.49
2018-10-19T15:28:54.606Z,51.49
2018-10-19T15:31:22.700Z,51.11
2018-10-19T15:33:51.141Z,51.14
2018-10-19T15:36:19.295Z,51.42
2018-10-19T15:38:47.670Z,51.74
2018-10-19T15:41:15.977Z,52.01
2018-10-19T15:43:44.319Z,51.55
2018-10-19T15:46:12.712Z,51.96
2018-10-19T15:48:41.045Z,52.67
2018-10-19T15:51:09.554Z,52.41
2018-10-19T15:53:37.638Z,52.41
2018-10-19T15:56:05.992Z,53.22
2018-10-19T15:58:34.322Z,53.42
2018-10-19T16:01:02.657Z,53.30
2018-10-19T16:03:30.980Z,52.93
2018-10-19T16:05:59.166Z,53.92
2018-10-19T16:08:27.259Z,53.16
2018-10-19T16:10:55.528Z,53.66
2018-10-19T16:13:23.690Z,53.59
2018-10-19T16:15:51.988Z,53.79
2018-10-19T16:18:20.411Z,53.75
2018-10-19T16:20:49.097Z,54.39
2018-10-19T16:23:17.297Z,54.83
2018-10-19T16:25:45.472Z,55.50
2018-10-19T16:28:13.723Z,55.47
2018-10-19T16:30:41.840Z,55.29
2018-10-19T16:33:10.059Z,55.89
2018-10-19T16:35:38.198Z,55.97
2018-10-19T16:38:06.600Z,56.93
2018-10-19T16:40:34.727Z,56.46
2018-10-19T16:43:02.900Z,56.56
2018-10-19T16:45:31.043Z,57.16
2018-10-19T16:47:59.215Z,57.41
2018-10-19T16:50:27.415Z,57.81
2018-10-19T16:52:55.623Z,57.47
2018-10-19T16:55:23.768Z,57.49
2018-10-19T16:57:52.560Z,57.81
2018-10-19T17:00:20.945Z,58.20
2018-10-19T17:02:49.387Z,58.07
2018-10-19T17:05:17.766Z,58.73
2018-10-19T17:07:46.309Z,58.42
2018-10-19T17:10:14.448Z,58.71
2018-10-19T17:12:42.636Z,58.92
2018-10-19T17:15:11.107Z,59.11
2018-10-19T17:17:39.289Z,59.23
2018-10-19T17:20:07.512Z,59.62
2018-10-19T17:22:36.029Z,59.84
2018-10-19T17:25:07.879Z,60.24
2018-10-19T17:27:36.144Z,59.88
2018-10-19T17:30:07.317Z,60.57
2018-10-19T17:32:36.489Z,60.21
2018-10-19T17:35:04.849Z,60.44
2018-10-19T17:37:32.976Z,60.85
2018-10-19T17:40:01.138Z,60.68
2018-10-19T17:42:29.323Z,61.14
2018-10-19T17:44:57.513Z,61.30
2018-10-19T17:47:25.632Z,61.50
2018-10-19T17:49:54.580Z,62.18
2018-10-19T17:52:23.029Z,61.96
2018-10-19T17:54:51.422Z,62.05
2018-10-19T17:57:20.985Z,61.87
2018-10-19T17:59:49.398Z,62.32
2018-10-19T18:02:17.858Z,62.11
2018-10-19T18:04:46.046Z,63.03
2018-10-19T18:07:14.189Z,62.36
2018-10-19T18:09:42.591Z,62.62
2018-10-19T18:12:10.968Z,63.20
2018-10-19T18:14:39.640Z,62.98
2018-10-19T18:17:07.815Z,63.34
2018-10-19T18:19:36.108Z,63.31
2018-10-19T18:22:05.497Z,63.39
2018-10-19T18:24:33.428Z,63.48
2018-10-19T18:27:01.642Z,63.57
2018-10-19T18:29:29.716Z,63.76
2018-10-19T18:31:58.011Z,63.21
2018-10-19T18:34:26.142Z,62.97
2018-10-19T18:37:06.981Z,64.36
2018-10-19T18:39:35.417Z,63.88
2018-10-19T18:42:03.664Z,64.11
2018-10-19T18:44:31.800Z,63.86
2018-10-19T18:46:59.989Z,63.94
2018-10-19T18:49:28.093Z,64.67
2018-10-19T18:51:56.392Z,64.32
2018-10-19T18:54:24.783Z,64.17
2018-10-19T18:56:53.125Z,64.91
2018-10-19T18:59:21.316Z,65.85
2018-10-19T19:01:49.473Z,66.75
2018-10-19T19:04:17.621Z,67.02
2018-10-19T19:06:46.032Z,66.85
2018-10-19T19:09:14.789Z,66.69
2018-10-19T19:11:42.959Z,66.83
2018-10-19T19:14:11.212Z,66.18
2018-10-19T19:16:39.324Z,66.50
2018-10-19T19:19:07.513Z,66.58
2018-10-19T19:21:35.823Z,67.13
2018-10-19T19:24:09.826Z,66.68
2018-10-19T19:26:38.000Z,66.83
2018-10-19T19:29:06.377Z,66.90
2018-10-19T19:31:34.488Z,66.47
2018-10-19T19:34:07.883Z,66.25
2018-10-19T19:36:36.407Z,66.80
2018-10-19T19:39:08.027Z,66.84
2018-10-19T19:41:41.476Z,67.04
2018-10-19T19:44:09.790Z,66.99
2018-10-19T19:46:37.878Z,66.98
2018-10-19T19:49:11.383Z,67.28
2018-10-19T19:51:39.567Z,66.89
2018-10-19T19:54:07.764Z,66.92
2018-10-19T19:56:36.161Z,67.65
2018-10-19T19:59:07.007Z,67.20
2018-10-19T20:01:35.829Z,67.35
2018-10-19T20:04:05.444Z,68.42
2018-10-19T20:06:33.828Z,68.09
2018-10-19T20:09:02.525Z,68.16
2018-10-19T20:11:30.716Z,67.90
2018-10-19T20:13:58.994Z,67.99
2018-10-19T20:16:27.122Z,67.83
2018-10-19T20:18:55.241Z,68.10
2018-10-19T20:21:23.381Z,68.29
2018-10-19T20:23:51.508Z,68.38
2018-10-19T20:26:19.678Z,68.92
2018-10-19T20:28:47.791Z,68.34
2018-10-19T20:31:16.633Z,68.37
2018-10-19T20:33:44.752Z,68.24
2018-10-19T20:36:12.881Z,67.98
2018-10-19T20:38:41.003Z,67.97
2018-10-19T20:41:09.538Z,68.76
2018-10-19T20:43:37.649Z,68.65
2018-10-19T20:46:06.090Z,68.38
2018-10-19T20:48:34.269Z,68.58
2018-10-19T20:51:02.395Z,67.92
2018-10-19T20:53:30.749Z,68.26
2018-10-19T20:55:58.904Z,68.28
2018-10-19T20:58:33.674Z,68.12
2018-10-19T21:01:02.151Z,68.54
2018-10-19T21:03:30.297Z,68.47
2018-10-19T21:05:58.584Z,68.49
2018-10-19T21:08:26.732Z,68.28
2018-10-19T21:10:55.650Z,68.64
2018-10-19T21:13:23.803Z,69.00
2018-10-19T21:15:51.939Z,68.94
2018-10-19T21:18:20.469Z,69.32
2018-10-19T21:20:48.623Z,69.28
2018-10-19T21:23:16.861Z,68.94
2018-10-19T21:25:44.952Z,68.74
2018-10-19T21:28:13.201Z,68.96
2018-10-19T21:30:41.348Z,69.54
2018-10-19T21:33:09.513Z,70.40
2018-10-19T21:35:37.658Z,69.90
2018-10-19T21:38:05.998Z,70.28
2018-10-19T21:40:34.120Z,70.50
2018-10-19T21:43:02.256Z,70.96
2018-10-19T21:45:30.479Z,70.88
2018-10-19T21:47:58.624Z,70.72
2018-10-19T21:50:26.987Z,70.59
2018-10-19T21:52:55.111Z,70.44
2018-10-19T21:55:23.242Z,70.48
2018-10-19T21:57:51.382Z,70.98
2018-10-19T22:00:19.848Z,70.92
2018-10-19T22:02:47.997Z,71.22
2018-10-19T22:05:16.701Z,71.21
2018-10-19T22:07:44.958Z,70.67
2018-10-19T22:10:13.176Z,70.10
2018-10-19T22:12:41.541Z,69.48
2018-10-19T22:15:10.431Z,70.16
2018-10-19T22:17:38.602Z,69.99
2018-10-19T22:20:07.182Z,70.25
2018-10-19T22:22:35.299Z,70.35
2018-10-19T22:25:03.653Z,70.62
2018-10-19T22:27:31.780Z,70.35
2018-10-19T22:29:59.952Z,69.84
2018-10-19T22:32:28.163Z,70.08
2018-10-19T22:34:56.354Z,69.61
2018-10-19T22:37:24.709Z,69.98
2018-10-19T22:39:52.868Z,69.77
2018-10-19T22:42:21.025Z,69.45
2018-10-19T22:44:49.604Z,69.68
2018-10-19T22:47:18.116Z,69.55
2018-10-19T22:49:46.296Z,69.31
2018-10-19T22:52:14.432Z,68.76
2018-10-19T22:54:42.599Z,69.61
2018-10-19T22:57:10.732Z,69.51
2018-10-19T22:59:38.880Z,69.94
2018-10-19T23:02:07.128Z,69.84
2018-10-19T23:04:35.303Z,69.48
2018-10-19T23:07:03.460Z,69.96
2018-10-19T23:09:31.595Z,69.80
2018-10-19T23:11:59.736Z,70.26
2018-10-19T23:14:27.877Z,70.04
2018-10-19T23:16:56.312Z,70.18
2018-10-19T23:19:24.452Z,69.94
2018-10-19T23:21:52.595Z,70.19
2018-10-19T23:24:21.007Z,69.96
2018-10-19T23:26:49.169Z,70.05
2018-10-19T23:29:17.405Z,69.83
2018-10-19T23:31:45.551Z,70.57
2018-10-19T23:34:14.216Z,70.63
2018-10-19T23:36:42.360Z,70.34
2018-10-19T23:42:00.952Z,69.70
2018-10-19T23:44:29.348Z,69.93
2018-10-19T23:46:57.587Z,69.58
2018-10-19T23:49:25.809Z,69.50
2018-10-19T23:51:54.184Z,69.74
2018-10-19T23:54:22.308Z,70.34
2018-10-19T23:56:50.462Z,70.58
2018-10-19T23:59:18.812Z,70.58
